Terminal Aerodrome Forecast
Issued by NWS

Home | Current Version | Previous Version | Text Only | Print | Product List | Glossary On
Versions: 1 2 3 4 5 6 7 8 9 10 11 12 13 14 15 16
926
FTUS43 KICT 121228 AAA
TAFRSL
TAF AMD
KRSL 121228Z 1212/1312 36008KT P6SM SCT250
     FM121300 02011KT P6SM OVC015
     FM122000 03012KT P6SM BKN025
     FM130100 06010KT P6SM SCT015 OVC120
     FM130700 11011KT P6SM SCT015 BKN035=

USA.gov is the U.S. government's official web portal to all federal, state and local government web resources and services.